createdAt,value
2022-11-10T00:02:29.824Z,9.96
2022-11-10T00:05:50.617Z,9.89
2022-11-10T00:09:11.414Z,9.92
2022-11-10T00:12:33.203Z,9.94
2022-11-10T00:16:12.843Z,10.04
2022-11-10T00:19:34.710Z,10.02
2022-11-10T00:22:56.130Z,10.03
2022-11-10T00:26:18.525Z,9.91
2022-11-10T00:29:39.335Z,9.88
2022-11-10T00:32:59.967Z,9.79
2022-11-10T00:36:20.737Z,9.80
2022-11-10T00:39:41.578Z,9.88
2022-11-10T00:43:02.548Z,9.82
2022-11-10T00:46:23.342Z,9.79
2022-11-10T00:49:43.970Z,9.73
2022-11-10T00:53:04.874Z,9.74
2022-11-10T00:56:25.893Z,9.70
2022-11-10T00:59:46.718Z,9.81
2022-11-10T01:03:07.524Z,9.83
2022-11-10T01:06:29.614Z,9.89
2022-11-10T01:09:50.166Z,9.90
2022-11-10T01:13:10.974Z,9.88
2022-11-10T01:16:32.052Z,9.90
2022-11-10T01:19:52.655Z,9.84
2022-11-10T01:23:13.196Z,9.85
2022-11-10T01:26:33.923Z,9.83
2022-11-10T01:29:55.011Z,9.94
2022-11-10T01:33:17.710Z,9.94
2022-11-10T01:36:38.149Z,9.88
2022-11-10T01:39:59.648Z,9.80
2022-11-10T01:43:20.821Z,9.80
2022-11-10T01:46:41.919Z,9.79
2022-11-10T01:50:02.907Z,9.74
2022-11-10T01:53:25.086Z,9.79
2022-11-10T01:56:47.795Z,9.78
2022-11-10T02:00:09.209Z,9.80
2022-11-10T02:03:42.811Z,9.86
2022-11-10T02:07:04.405Z,9.84
2022-11-10T02:10:25.448Z,9.86
2022-11-10T02:13:46.265Z,9.84
2022-11-10T02:17:07.305Z,9.86
2022-11-10T02:20:28.257Z,9.82
2022-11-10T02:23:50.796Z,9.84
2022-11-10T02:27:11.687Z,9.89
2022-11-10T02:30:32.841Z,9.89
2022-11-10T02:33:53.489Z,9.89
2022-11-10T02:37:14.226Z,9.99
2022-11-10T02:40:34.845Z,9.87
2022-11-10T02:43:56.962Z,9.85
2022-11-10T02:47:17.629Z,9.95
2022-11-10T02:50:38.371Z,9.89
2022-11-10T02:53:59.112Z,9.89
2022-11-10T02:57:19.876Z,9.93
2022-11-10T03:00:41.041Z,9.88
2022-11-10T03:04:01.794Z,9.90
2022-11-10T03:07:22.584Z,9.91
2022-11-10T03:10:43.460Z,9.93
2022-11-10T03:14:04.026Z,9.98
2022-11-10T03:17:24.930Z,10.00
2022-11-10T03:20:47.019Z,9.95
2022-11-10T03:24:07.869Z,9.83
2022-11-10T03:27:28.626Z,9.79
2022-11-10T03:30:49.423Z,9.66
2022-11-10T03:34:10.404Z,9.73
2022-11-10T03:37:31.361Z,9.67
2022-11-10T03:44:33.296Z,9.44
2022-11-10T03:47:54.184Z,9.23
2022-11-10T03:51:15.116Z,9.06
2022-11-10T03:54:35.724Z,9.07
2022-11-10T03:57:56.272Z,8.91
2022-11-10T04:01:17.054Z,8.78
2022-11-10T04:04:56.597Z,8.77
2022-11-10T04:08:36.407Z,8.97
2022-11-10T04:12:19.491Z,9.32
2022-11-10T04:15:42.703Z,9.33
2022-11-10T04:19:04.076Z,9.50
2022-11-10T04:22:43.402Z,9.49
2022-11-10T04:26:24.664Z,9.49
2022-11-10T04:29:45.448Z,9.64
2022-11-10T04:33:07.018Z,9.73
2022-11-10T04:36:28.926Z,9.72
2022-11-10T04:39:49.452Z,9.74
2022-11-10T04:43:10.373Z,9.81
2022-11-10T04:46:40.484Z,9.82
2022-11-10T04:50:01.036Z,9.79
2022-11-10T04:53:22.568Z,9.88
2022-11-10T04:56:43.610Z,9.95
2022-11-10T05:00:04.972Z,9.94
2022-11-10T05:03:26.606Z,9.84
2022-11-10T05:06:47.450Z,9.86
2022-11-10T05:10:08.353Z,9.87
2022-11-10T05:13:29.236Z,9.90
2022-11-10T05:16:49.724Z,9.98
2022-11-10T05:20:10.400Z,9.96
2022-11-10T05:23:40.352Z,9.98
2022-11-10T05:27:01.276Z,9.89
2022-11-10T05:30:23.782Z,9.93
2022-11-10T05:33:44.528Z,9.95
2022-11-10T05:37:05.397Z,9.93
2022-11-10T05:40:26.249Z,9.91
2022-11-10T05:43:47.446Z,9.87
2022-11-10T05:47:08.913Z,9.84
2022-11-10T05:50:29.743Z,9.96
2022-11-10T05:53:50.450Z,10.07
2022-11-10T05:57:11.307Z,10.12
2022-11-10T06:00:33.291Z,10.06
2022-11-10T06:03:54.320Z,10.10
2022-11-10T06:07:15.079Z,10.12
2022-11-10T06:10:36.919Z,10.17
2022-11-10T06:13:57.409Z,10.26
2022-11-10T06:17:18.740Z,10.22
2022-11-10T06:20:39.537Z,10.18
2022-11-10T06:24:00.324Z,10.26
2022-11-10T06:27:21.251Z,10.26
2022-11-10T06:30:42.275Z,10.37
2022-11-10T06:34:02.919Z,10.35
2022-11-10T06:37:23.631Z,10.39
2022-11-10T06:40:44.333Z,10.43
2022-11-10T06:44:06.422Z,10.53
2022-11-10T06:47:27.578Z,10.52
2022-11-10T06:50:48.540Z,10.59
2022-11-10T06:54:09.106Z,10.66
2022-11-10T06:57:30.086Z,10.73
2022-11-10T07:00:51.149Z,10.76
2022-11-10T07:04:19.752Z,10.81
2022-11-10T07:07:41.415Z,10.74
2022-11-10T07:11:02.424Z,10.86
2022-11-10T07:14:23.036Z,10.80
2022-11-10T07:17:43.815Z,10.84
2022-11-10T07:21:05.181Z,10.87
2022-11-10T07:24:26.271Z,10.92
2022-11-10T07:27:52.836Z,10.92
2022-11-10T07:31:13.852Z,10.87
2022-11-10T07:34:34.483Z,10.89
2022-11-10T07:37:55.857Z,10.87
2022-11-10T07:41:17.303Z,10.96
2022-11-10T07:44:37.952Z,11.09
2022-11-10T07:48:02.555Z,11.27
2022-11-10T07:51:23.551Z,11.41
2022-11-10T07:54:44.302Z,11.44
2022-11-10T07:58:05.232Z,11.33
2022-11-10T08:01:26.092Z,11.43
2022-11-10T08:04:46.888Z,11.43
2022-11-10T08:08:08.282Z,11.34
2022-11-10T08:11:29.281Z,11.54
2022-11-10T08:14:49.979Z,11.88
2022-11-10T08:18:21.509Z,11.96
2022-11-10T08:21:42.262Z,11.95
2022-11-10T08:25:02.918Z,12.09
2022-11-10T08:28:23.824Z,12.00
2022-11-10T08:31:44.807Z,12.13
2022-11-10T08:35:05.790Z,12.20
2022-11-10T08:38:26.232Z,12.41
2022-11-10T08:41:47.195Z,12.47
2022-11-10T08:45:07.982Z,12.39
2022-11-10T08:48:28.559Z,12.33
2022-11-10T08:51:49.151Z,12.23
2022-11-10T08:55:10.010Z,12.00
2022-11-10T08:58:31.212Z,12.21
2022-11-10T09:01:51.756Z,12.53
2022-11-10T09:05:12.337Z,12.57
2022-11-10T09:08:34.082Z,12.78
2022-11-10T09:11:54.919Z,12.81
2022-11-10T09:15:15.919Z,12.78
2022-11-10T09:18:37.386Z,12.87
2022-11-10T09:21:58.041Z,12.96
2022-11-10T09:25:18.706Z,13.08
2022-11-10T09:28:39.488Z,12.97
2022-11-10T09:32:00.129Z,12.97
2022-11-10T09:35:21.441Z,12.74
2022-11-10T09:38:42.399Z,12.67
2022-11-10T09:42:20.724Z,12.60
2022-11-10T09:45:44.784Z,12.76
2022-11-10T09:49:11.567Z,12.81
2022-11-10T09:52:34.692Z,12.66
2022-11-10T09:55:59.422Z,12.43
2022-11-10T09:59:24.778Z,12.32
2022-11-10T10:02:50.759Z,12.27
2022-11-10T10:06:13.036Z,12.36
2022-11-10T10:09:36.569Z,12.61
2022-11-10T10:13:20.520Z,12.90
2022-11-10T10:16:44.051Z,13.09
2022-11-10T10:20:23.330Z,13.24
2022-11-10T10:24:21.240Z,13.31
2022-11-10T10:27:41.482Z,13.38
2022-11-10T10:31:11.234Z,13.25
2022-11-10T10:34:34.499Z,13.39
2022-11-10T10:37:56.693Z,13.20
2022-11-10T10:41:30.737Z,13.10
2022-11-10T10:45:23.916Z,13.10
2022-11-10T10:48:50.447Z,13.17
2022-11-10T10:52:11.557Z,13.22
2022-11-10T10:55:32.921Z,13.17
2022-11-10T10:58:54.308Z,13.44
2022-11-10T11:02:24.418Z,13.75
2022-11-10T11:05:59.314Z,13.88
2022-11-10T11:09:24.153Z,13.99
2022-11-10T11:12:44.827Z,14.24
2022-11-10T11:16:07.865Z,14.37
2022-11-10T11:19:36.150Z,14.57
2022-11-10T11:22:59.595Z,14.13
2022-11-10T11:26:39.177Z,14.01
2022-11-10T11:30:05.995Z,13.87
2022-11-10T11:33:35.924Z,13.62
2022-11-10T11:37:09.833Z,13.35
2022-11-10T11:40:47.365Z,13.06
2022-11-10T11:44:24.563Z,12.83
2022-11-10T11:47:47.823Z,12.82
2022-11-10T11:51:26.888Z,12.60
2022-11-10T11:55:13.881Z,12.37
2022-11-10T11:58:45.072Z,12.35
2022-11-10T12:02:23.759Z,12.33
2022-11-10T12:05:46.925Z,12.40
2022-11-10T12:09:13.567Z,12.35
2022-11-10T12:12:54.796Z,12.29
2022-11-10T12:16:15.927Z,12.25
2022-11-10T12:19:41.719Z,12.28
2022-11-10T12:23:05.543Z,12.35
2022-11-10T12:26:29.001Z,12.42
2022-11-10T12:29:55.726Z,12.31
2022-11-10T12:33:16.566Z,12.16
2022-11-10T12:36:37.700Z,12.02
2022-11-10T12:40:02.845Z,11.96
2022-11-10T12:43:32.350Z,12.06
2022-11-10T12:46:55.672Z,12.08
2022-11-10T12:50:16.613Z,12.08
2022-11-10T12:53:39.523Z,12.14
2022-11-10T12:57:16.176Z,12.27
2022-11-10T13:00:55.634Z,12.38
2022-11-10T13:04:17.630Z,12.26
2022-11-10T13:07:38.292Z,12.40
2022-11-10T13:11:11.361Z,12.37
2022-11-10T13:14:35.382Z,12.34
2022-11-10T13:17:56.402Z,12.21
2022-11-10T13:21:17.449Z,12.19
2022-11-10T13:24:39.605Z,12.22
2022-11-10T13:28:00.295Z,12.21
2022-11-10T13:31:26.907Z,12.28
2022-11-10T13:34:47.699Z,12.21
2022-11-10T13:38:19.178Z,12.23
2022-11-10T13:41:45.446Z,12.10
2022-11-10T13:45:24.881Z,12.09
2022-11-10T13:49:21.207Z,12.11
2022-11-10T13:52:50.471Z,12.07
2022-11-10T13:56:23.767Z,11.94
2022-11-10T13:59:50.429Z,11.91
2022-11-10T14:03:29.514Z,11.84
2022-11-10T14:06:52.010Z,11.75
2022-11-10T14:10:20.019Z,11.64
2022-11-10T14:13:44.057Z,11.63
2022-11-10T14:17:04.670Z,11.56
2022-11-10T14:20:34.600Z,11.55
2022-11-10T14:24:11.319Z,11.53
2022-11-10T14:27:34.265Z,11.57
2022-11-10T14:30:55.778Z,11.58
2022-11-10T14:34:17.678Z,11.57
2022-11-10T14:37:43.297Z,11.50
2022-11-10T14:41:05.610Z,11.50
2022-11-10T14:44:27.542Z,11.47
2022-11-10T14:47:53.426Z,11.44
2022-11-10T14:51:15.858Z,11.41
2022-11-10T14:54:37.113Z,11.35
2022-11-10T14:58:10.348Z,11.32
2022-11-10T15:01:34.684Z,11.34
2022-11-10T15:04:57.374Z,11.37
2022-11-10T15:08:18.214Z,11.32
2022-11-10T15:11:40.762Z,11.31
2022-11-10T15:15:01.307Z,11.29
2022-11-10T15:18:24.282Z,11.20
2022-11-10T15:21:45.318Z,11.22
2022-11-10T15:25:13.678Z,11.21
2022-11-10T15:28:35.308Z,11.25
2022-11-10T15:31:59.262Z,11.25
2022-11-10T15:35:22.676Z,11.34
2022-11-10T15:38:43.498Z,11.40
2022-11-10T15:42:12.577Z,11.46
2022-11-10T15:45:33.156Z,11.50
2022-11-10T15:48:53.779Z,11.57
2022-11-10T15:52:16.216Z,11.56
2022-11-10T15:55:37.111Z,11.63
2022-11-10T15:59:02.113Z,11.64
2022-11-10T16:02:24.505Z,11.65
2022-11-10T16:05:45.871Z,11.74
2022-11-10T16:09:07.002Z,11.72
2022-11-10T16:12:29.658Z,11.47
2022-11-10T16:15:50.848Z,11.25
2022-11-10T16:19:12.115Z,11.07
2022-11-10T16:22:32.843Z,10.99
2022-11-10T16:25:54.793Z,10.87
2022-11-10T16:29:17.163Z,10.89
2022-11-10T16:32:37.824Z,10.83
2022-11-10T16:35:58.371Z,10.85
2022-11-10T16:39:19.251Z,10.79
2022-11-10T16:42:40.298Z,10.76
2022-11-10T16:46:05.666Z,10.76
2022-11-10T16:49:28.714Z,10.79
2022-11-10T16:52:49.632Z,10.77
2022-11-10T16:56:21.029Z,10.72
2022-11-10T16:59:42.608Z,10.67
2022-11-10T17:03:12.085Z,10.63
2022-11-10T17:06:32.928Z,10.61
2022-11-10T17:09:53.688Z,10.67
2022-11-10T17:13:14.491Z,10.64
2022-11-10T17:16:36.540Z,10.56
2022-11-10T17:19:59.135Z,10.52
2022-11-10T17:23:21.687Z,10.50
2022-11-10T17:26:43.146Z,10.37
2022-11-10T17:30:03.964Z,10.40
2022-11-10T17:33:25.173Z,10.42
2022-11-10T17:36:46.766Z,10.34
2022-11-10T17:40:19.005Z,10.26
2022-11-10T17:43:44.338Z,10.21
2022-11-10T17:47:06.290Z,10.23
2022-11-10T17:50:26.914Z,10.20
2022-11-10T17:53:47.976Z,10.16
2022-11-10T17:57:09.971Z,10.01
2022-11-10T18:00:30.822Z,9.99
2022-11-10T18:03:51.453Z,9.98
2022-11-10T18:07:12.276Z,9.93
2022-11-10T18:10:32.710Z,9.87
2022-11-10T18:13:53.444Z,9.79
2022-11-10T18:17:14.235Z,9.79
2022-11-10T18:20:35.710Z,9.76
2022-11-10T18:23:56.285Z,9.65
2022-11-10T18:27:17.143Z,9.64
2022-11-10T18:30:38.036Z,9.56
2022-11-10T18:33:58.512Z,9.63
2022-11-10T18:37:20.888Z,9.60
2022-11-10T18:40:41.787Z,9.56
2022-11-10T18:44:02.752Z,9.54
2022-11-10T18:47:23.806Z,9.53
2022-11-10T18:50:44.499Z,9.49
2022-11-10T18:54:05.258Z,9.47
2022-11-10T18:57:25.971Z,9.34
2022-11-10T19:00:46.832Z,9.20
2022-11-10T19:04:07.696Z,9.19
2022-11-10T19:07:29.023Z,9.12
2022-11-10T19:10:49.563Z,9.20
2022-11-10T19:14:10.110Z,9.19
2022-11-10T19:17:30.978Z,9.03
2022-11-10T19:20:51.836Z,9.00
2022-11-10T19:24:18.191Z,9.02
2022-11-10T19:27:46.608Z,8.98
2022-11-10T19:31:09.365Z,8.93
2022-11-10T19:34:31.568Z,8.98
2022-11-10T19:37:54.059Z,9.02
2022-11-10T19:41:19.810Z,8.93
2022-11-10T19:44:40.426Z,8.95
2022-11-10T19:48:01.337Z,8.94
2022-11-10T19:51:23.253Z,8.96
2022-11-10T19:54:44.366Z,8.89
2022-11-10T19:58:04.860Z,8.83
2022-11-10T20:01:26.410Z,8.74
2022-11-10T20:05:05.888Z,8.72
2022-11-10T20:08:26.824Z,8.67
2022-11-10T20:11:47.684Z,8.54
2022-11-10T20:15:08.696Z,8.62
2022-11-10T20:18:29.406Z,8.55
2022-11-10T20:21:50.096Z,8.48
2022-11-10T20:25:10.612Z,8.38
2022-11-10T20:28:32.003Z,8.40
2022-11-10T20:31:52.899Z,8.43
2022-11-10T20:35:13.620Z,8.45
2022-11-10T20:38:34.902Z,8.45
2022-11-10T20:41:55.816Z,8.37
2022-11-10T20:45:16.852Z,8.38
2022-11-10T20:48:37.572Z,8.48
2022-11-10T20:51:59.835Z,8.42
2022-11-10T20:55:43.751Z,8.39
2022-11-10T20:59:01.476Z,8.46
2022-11-10T21:02:22.415Z,8.42
2022-11-10T21:05:43.221Z,8.37
2022-11-10T21:09:05.409Z,8.41
2022-11-10T21:12:44.421Z,8.40
2022-11-10T21:16:06.015Z,8.34
2022-11-10T21:19:26.741Z,8.23
2022-11-10T21:22:47.579Z,8.15
2022-11-10T21:26:09.296Z,8.21
2022-11-10T21:29:30.070Z,8.29
2022-11-10T21:32:50.773Z,8.30
2022-11-10T21:36:11.527Z,8.24
2022-11-10T21:39:32.645Z,8.24
2022-11-10T21:42:54.143Z,8.27
2022-11-10T21:46:14.839Z,8.24
2022-11-10T21:49:35.942Z,8.21
2022-11-10T21:52:56.466Z,8.11
2022-11-10T21:56:17.594Z,8.15
2022-11-10T21:59:38.519Z,8.13
2022-11-10T22:03:00.252Z,8.07
2022-11-10T22:06:21.519Z,8.07
2022-11-10T22:10:00.801Z,8.01
2022-11-10T22:13:40.457Z,8.04
2022-11-10T22:17:20.340Z,8.14
2022-11-10T22:20:41.199Z,8.07
2022-11-10T22:24:20.787Z,8.06
2022-11-10T22:27:41.787Z,8.03
2022-11-10T22:31:06.488Z,8.14
2022-11-10T22:34:27.177Z,8.21
2022-11-10T22:37:48.069Z,8.13
2022-11-10T22:41:31.757Z,8.16
2022-11-10T22:44:52.666Z,8.17
2022-11-10T22:48:29.799Z,8.11
2022-11-10T22:51:51.620Z,8.05
2022-11-10T22:55:12.243Z,7.87
2022-11-10T22:58:32.794Z,7.93
2022-11-10T23:01:53.907Z,8.10
2022-11-10T23:05:14.599Z,8.10
2022-11-10T23:08:35.556Z,8.04
2022-11-10T23:11:56.487Z,8.12
2022-11-10T23:15:17.199Z,8.09
2022-11-10T23:18:38.561Z,8.08
2022-11-10T23:21:58.995Z,8.01
2022-11-10T23:25:19.798Z,8.18
2022-11-10T23:28:40.677Z,8.12
2022-11-10T23:32:01.559Z,7.98
2022-11-10T23:35:22.377Z,7.90
2022-11-10T23:38:43.508Z,8.02
2022-11-10T23:42:04.223Z,8.06
2022-11-10T23:45:29.788Z,8.15
2022-11-10T23:48:57.910Z,8.24
2022-11-10T23:52:18.682Z,8.34
2022-11-10T23:55:39.486Z,8.42
2022-11-10T23:59:00.751Z,8.43
